Time;durP1;ratioP1;P1;durP2;ratioP2;P2;SDS_P1;SDS_P2;PMS_P1;PMS_P2;Temp;Humidity;BMP_temperature;BMP_pressure;BME280_temperature;BME280_humidity;BME280_pressure;Samples;Min_cycle;Max_cycle;Signal;HPM_P1;HPM_P2
2021/04/22 00:02:25;;;;;;;13.33;4.70;;;;;;;;;;3579155;39;20395;-73
2021/04/22 00:04:51;;;;;;;13.73;5.67;;;;;;;;;;3579673;39;20421;-74
2021/04/22 00:07:17;;;;;;;16.60;5.73;;;;;;;;;;3577285;39;20533;-73
2021/04/22 00:09:44;;;;;;;7.13;4.50;;;;;;;;;;3574778;39;20398;-73
2021/04/22 00:12:10;;;;;;;8.43;5.90;;;;;;;;;;3576687;39;20423;-73
2021/04/22 00:14:36;;;;;;;9.77;4.87;;;;;;;;;;3576737;39;20441;-73
2021/04/22 00:17:06;;;;;;;16.93;4.80;;;;;;;;;;3559105;39;21114;-73
2021/04/22 00:19:33;;;;;;;9.60;5.30;;;;;;;;;;3576809;39;20424;-73
2021/04/22 00:21:59;;;;;;;9.80;4.30;;;;;;;;;;3569182;39;20368;-73
2021/04/22 00:24:25;;;;;;;11.43;4.90;;;;;;;;;;3568272;39;20405;-73
2021/04/22 00:26:51;;;;;;;13.13;5.77;;;;;;;;;;3576796;39;20388;-73
2021/04/22 00:29:17;;;;;;;11.70;4.67;;;;;;;;;;3566931;39;20419;-73
2021/04/22 00:31:43;;;;;;;9.13;4.43;;;;;;;;;;3566299;39;20367;-73
2021/04/22 00:34:09;;;;;;;15.30;5.40;;;;;;;;;;3567786;39;20408;-73
2021/04/22 00:36:35;;;;;;;14.90;5.87;;;;;;;;;;3574035;39;20420;-73
2021/04/22 00:39:01;;;;;;;12.27;4.83;;;;;;;;;;3565540;39;20403;-73
2021/04/22 00:41:27;;;;;;;12.80;5.50;;;;;;;;;;3574054;39;20401;-74
2021/04/22 00:43:54;;;;;;;9.30;5.10;;;;;;;;;;3577213;39;20383;-73
2021/04/22 00:46:20;;;;;;;15.80;5.20;;;;;;;;;;3568036;39;20448;-73
2021/04/22 00:48:46;;;;;;;8.43;4.80;;;;;;;;;;3577905;39;20390;-74
2021/04/22 00:51:12;;;;;;;9.63;4.23;;;;;;;;;;3566511;39;20509;-73
2021/04/22 00:53:39;;;;;;;10.30;5.20;;;;;;;;;;3568288;39;20780;-74
2021/04/22 00:56:05;;;;;;;9.30;4.53;;;;;;;;;;3568584;39;20400;-74
2021/04/22 00:58:31;;;;;;;13.53;6.80;;;;;;;;;;3577671;39;20383;-74
2021/04/22 01:00:58;;;;;;;7.30;4.30;;;;;;;;;;3577151;39;20360;-73
2021/04/22 01:03:26;;;;;;;14.57;5.63;;;;;;;;;;3578388;39;20421;-73
2021/04/22 01:05:56;;;;;;;12.90;4.53;;;;;;;;;;3591280;23;20391;-78
2021/04/22 01:08:23;;;;;;;10.87;5.33;;;;;;;;;;3591231;39;20432;-77
2021/04/22 01:10:49;;;;;;;8.53;4.60;;;;;;;;;;3592787;39;20417;-78
2021/04/22 01:13:15;;;;;;;22.03;6.30;;;;;;;;;;3583113;39;20450;-78
2021/04/22 01:15:42;;;;;;;9.43;5.40;;;;;;;;;;3591265;39;20422;-78
2021/04/22 01:18:09;;;;;;;11.93;4.93;;;;;;;;;;3574843;39;20503;-78
2021/04/22 01:20:44;;;;;;;12.37;4.50;;;8.80;99.90;;;;;;3581078;39;20401;-78
2021/04/22 01:23:16;;;;;;;6.13;4.47;;;2.00;99.90;;;;;;3591396;39;20406;-78
2021/04/22 01:25:47;;;;;;;11.83;5.77;;;2.10;99.90;;;;;;3583328;39;20402;-78
2021/04/22 01:28:14;;;;;;;14.43;6.50;;;2.10;99.90;;;;;;3580897;39;22357;-78
2021/04/22 01:30:41;;;;;;;11.87;5.13;;;2.00;99.90;;;;;;3592949;39;20407;-78
2021/04/22 01:33:09;;;;;;;15.37;4.90;;;1.90;99.90;;;;;;3583005;39;20382;-78
2021/04/22 01:35:37;;;;;;;11.63;4.30;;;2.00;99.90;;;;;;3590577;39;20428;-78
2021/04/22 01:38:04;;;;;;;11.00;4.57;;;2.00;99.90;;;;;;3591661;39;20396;-78
2021/04/22 01:40:31;;;;;;;8.80;4.80;;;2.00;99.90;;;;;;3577416;39;20537;-78
2021/04/22 01:42:57;;;;;;;10.30;5.70;;;1.90;99.90;;;;;;3581983;39;20404;-78
2021/04/22 01:45:24;;;;;;;11.33;5.50;;;1.80;99.90;;;;;;3583888;39;20773;-78
2021/04/22 01:47:52;;;;;;;15.07;6.13;;;1.90;99.90;;;;;;3583481;39;20390;-78
2021/04/22 01:50:20;;;;;;;14.80;5.77;;;1.90;99.90;;;;;;3589540;39;20423;-78
2021/04/22 01:52:46;;;;;;;13.17;5.00;;;1.80;99.90;;;;;;3592753;39;20367;-78
2021/04/22 01:55:15;;;;;;;7.03;4.00;;;2.00;99.90;;;;;;3582654;39;20402;-78
2021/04/22 01:57:41;;;;;;;8.03;4.50;;;1.90;99.90;;;;;;3581882;39;20228;-78
2021/04/22 02:00:13;;;;;;;14.07;4.37;;;2.00;99.90;;;;;;3575289;39;20419;-78
2021/04/22 02:02:40;;;;;;;15.77;6.60;;;1.90;99.90;;;;;;3591275;39;20470;-78
2021/04/22 02:05:06;;;;;;;7.80;4.53;;;1.80;99.90;;;;;;3566299;39;20413;-78
2021/04/22 02:07:32;;;;;;;11.87;5.73;;;1.70;99.90;;;;;;3593209;39;20394;-78
2021/04/22 02:09:58;;;;;;;9.83;5.20;;;1.70;99.90;;;;;;3572593;39;20411;-76
2021/04/22 02:12:24;;;;;;;8.30;4.50;;;1.60;99.90;;;;;;3580689;39;20236;-77
2021/04/22 02:14:50;;;;;;;13.00;5.10;;;1.70;99.90;;;;;;3580575;39;20397;-77
2021/04/22 02:17:16;;;;;;;7.60;5.43;;;1.60;99.90;;;;;;3581452;39;21975;-77
2021/04/22 02:19:41;;;;;;;22.23;6.07;;;1.50;99.90;;;;;;3572165;39;20390;-77
2021/04/22 02:22:07;;;;;;;10.43;5.07;;;1.60;99.90;;;;;;3571704;39;20244;-77
2021/04/22 02:24:33;;;;;;;13.43;6.00;;;1.60;99.90;;;;;;3579789;39;20911;-77
2021/04/22 02:26:59;;;;;;;13.53;5.83;;;1.70;99.90;;;;;;3578136;39;20229;-77
2021/04/22 02:29:25;;;;;;;13.07;5.67;;;1.70;99.90;;;;;;3579735;39;20406;-77
2021/04/22 02:31:50;;;;;;;16.47;5.70;;;1.70;99.90;;;;;;3580393;39;20241;-77
2021/04/22 02:34:17;;;;;;;13.97;6.37;;;1.70;99.90;;;;;;3573975;39;20786;-77
2021/04/22 02:36:43;;;;;;;12.50;5.90;;;1.60;99.90;;;;;;3580611;39;20233;-77
2021/04/22 02:39:09;;;;;;;10.30;4.83;;;1.70;99.90;;;;;;3581742;39;20516;-77
2021/04/22 02:41:35;;;;;;;17.93;6.60;;;1.70;99.90;;;;;;3581401;39;20965;-77
2021/04/22 02:44:01;;;;;;;16.00;5.53;;;1.80;99.90;;;;;;3580133;39;20455;-76
2021/04/22 02:46:27;;;;;;;18.07;6.60;;;2.00;99.90;;;;;;3580431;39;20232;-76
2021/04/22 02:48:53;;;;;;;10.13;5.40;;;1.90;99.90;;;;;;3579995;39;20462;-76
2021/04/22 02:51:19;;;;;;;12.73;5.30;;;1.90;99.90;;;;;;3579776;39;20256;-77
2021/04/22 02:53:44;;;;;;;17.87;5.40;;;1.80;99.90;;;;;;3571468;39;20505;-76
2021/04/22 02:56:10;;;;;;;13.20;5.47;;;1.80;99.90;;;;;;3572451;39;20237;-76
2021/04/22 02:58:36;;;;;;;15.73;5.63;;;1.70;99.90;;;;;;3579963;39;20232;-77
2021/04/22 03:01:02;;;;;;;16.70;6.23;;;1.60;99.90;;;;;;3589196;39;20414;-77
2021/04/22 03:03:28;;;;;;;15.57;4.83;;;1.60;99.90;;;;;;3582101;39;20417;-77
2021/04/22 03:05:56;;;;;;;8.97;5.30;;;1.60;99.90;;;;;;3570558;40;20494;-77
2021/04/22 03:08:21;;;;;;;11.47;5.73;;;1.60;99.90;;;;;;3569846;40;21215;-77
2021/04/22 03:10:49;;;;;;;8.27;4.80;;;1.50;99.90;;;;;;3569131;40;20379;-77
2021/04/22 03:13:15;;;;;;;14.10;6.23;;;1.50;99.90;;;;;;3567228;40;20387;-76
2021/04/22 03:15:41;;;;;;;16.37;5.37;;;1.50;99.90;;;;;;3561312;40;20424;-77
2021/04/22 03:18:07;;;;;;;11.93;6.03;;;1.40;99.90;;;;;;3579362;39;20382;-77
2021/04/22 03:20:33;;;;;;;15.53;6.00;;;1.40;99.90;;;;;;3580811;40;20388;-76
2021/04/22 03:22:59;;;;;;;10.03;5.90;;;1.40;99.90;;;;;;3570021;40;20384;-76
2021/04/22 03:25:26;;;;;;;8.10;5.33;;;1.30;99.90;;;;;;3570178;40;22168;-76
2021/04/22 03:27:53;;;;;;;17.13;6.13;;;1.30;99.90;;;;;;3569584;40;20407;-76
2021/04/22 03:30:22;;;;;;;14.73;5.67;;;1.30;99.90;;;;;;3579220;40;20375;-77
2021/04/22 03:32:51;;;;;;;11.90;6.33;;;1.30;99.90;;;;;;3578306;40;21222;-77
2021/04/22 03:35:17;;;;;;;13.73;6.70;;;1.30;99.90;;;;;;3569724;40;20408;-76
2021/04/22 03:37:43;;;;;;;12.97;5.70;;;1.30;99.90;;;;;;3579107;40;20774;-77
2021/04/22 03:40:12;;;;;;;12.50;6.20;;;1.20;99.90;;;;;;3579997;40;20371;-77
2021/04/22 03:42:38;;;;;;;21.00;5.20;;;1.10;99.90;;;;;;3578260;39;21950;-78
2021/04/22 03:45:06;;;;;;;18.53;5.70;;;1.10;99.90;;;;;;3583523;40;20448;-78
2021/04/22 03:47:32;;;;;;;12.27;6.40;;;1.10;99.90;;;;;;3565782;40;21165;-78
2021/04/22 03:49:58;;;;;;;12.53;5.50;;;1.10;99.90;;;;;;3565406;40;20443;-77
2021/04/22 03:52:24;;;;;;;14.40;6.07;;;0.90;99.90;;;;;;3573020;40;20245;-77
2021/04/22 03:54:50;;;;;;;22.27;7.03;;;0.90;99.90;;;;;;3564586;40;21352;-77
2021/04/22 03:57:16;;;;;;;32.63;7.47;;;0.80;99.90;;;;;;3582102;40;20408;-77
2021/04/22 03:59:42;;;;;;;14.70;6.87;;;0.70;99.90;;;;;;3564688;40;20404;-78
2021/04/22 04:02:08;;;;;;;8.80;6.77;;;0.80;99.90;;;;;;3582142;40;20435;-78
2021/04/22 04:04:33;;;;;;;11.77;5.73;;;0.80;99.90;;;;;;3559751;39;20391;-78
2021/04/22 04:06:59;;;;;;;20.20;6.50;;;0.70;99.90;;;;;;3592725;39;20233;-78
2021/04/22 04:09:25;;;;;;;14.33;6.17;;;0.90;99.90;;;;;;3592862;39;20239;-78
2021/04/22 04:11:51;;;;;;;26.97;6.40;;;0.80;99.90;;;;;;3584831;39;20243;-78
2021/04/22 04:14:16;;;;;;;11.93;5.80;;;0.90;99.90;;;;;;3574862;39;20316;-78
2021/04/22 04:16:42;;;;;;;12.90;6.77;;;0.90;99.90;;;;;;3584250;39;20252;-78
2021/04/22 04:19:08;;;;;;;13.90;5.33;;;1.00;99.90;;;;;;3575083;39;20440;-78
2021/04/22 04:21:34;;;;;;;20.53;6.60;;;1.10;99.90;;;;;;3584977;39;20735;-78
2021/04/22 04:24:00;;;;;;;14.50;6.27;;;1.00;99.90;;;;;;3592828;39;20236;-78
2021/04/22 04:26:26;;;;;;;11.40;5.50;;;0.80;99.90;;;;;;3574014;39;20378;-78
2021/04/22 04:28:53;;;;;;;12.20;6.47;;;0.60;99.90;;;;;;3593479;39;20400;-78
2021/04/22 04:31:19;;;;;;;9.40;5.40;;;0.70;99.90;;;;;;3585457;39;20451;-78
2021/04/22 04:33:45;;;;;;;11.90;8.63;;;0.60;99.90;;;;;;3584026;39;20913;-79
2021/04/22 04:36:11;;;;;;;26.43;8.13;;;0.70;99.90;;;;;;3583864;39;20416;-79
2021/04/22 04:38:37;;;;;;;11.70;5.90;;;0.70;99.90;;;;;;3576172;39;20419;-79
2021/04/22 04:41:03;;;;;;;12.83;6.97;;;0.70;99.90;;;;;;3576464;39;20372;-78
2021/04/22 04:43:29;;;;;;;24.10;7.80;;;0.90;99.90;;;;;;3576062;39;20434;-79
2021/04/22 04:45:55;;;;;;;20.93;7.63;;;1.10;99.90;;;;;;3582376;39;20217;-78
2021/04/22 04:48:21;;;;;;;10.17;6.43;;;1.40;99.90;;;;;;3582546;39;20472;-78
2021/04/22 04:50:47;;;;;;;20.07;6.00;;;1.70;99.90;;;;;;3582756;39;20459;-79
2021/04/22 04:53:37;;;;;;;15.43;6.40;;;1.80;99.90;;;;;;3584047;39;20252;-78
2021/04/22 04:56:03;;;;;;;15.20;6.50;;;1.90;99.90;;;;;;3543875;40;20235;-79
2021/04/22 04:58:30;;;;;;;14.13;6.37;;;2.10;99.90;;;;;;3543854;40;20517;-78
2021/04/22 05:00:57;;;;;;;19.10;7.57;;;2.20;99.90;;;;;;3535268;40;20425;-78
2021/04/22 05:03:22;;;;;;;16.80;6.90;;;2.30;99.90;;;;;;3551887;40;20402;-79
2021/04/22 05:05:48;;;;;;;9.63;5.70;;;2.30;99.90;;;;;;3542637;40;20471;-78
2021/04/22 05:08:14;;;;;;;15.67;8.13;;;2.50;99.90;;;;;;3543077;40;20460;-79
2021/04/22 05:10:40;;;;;;;14.90;6.60;;;2.50;99.90;;;;;;3537492;40;20324;-78
2021/04/22 05:13:06;;;;;;;18.93;7.33;;;2.60;99.90;;;;;;3544133;40;20406;-78
2021/04/22 05:15:31;;;;;;;20.20;7.60;;;2.60;99.90;;;;;;3542941;40;20537;-79
2021/04/22 05:17:57;;;;;;;19.50;7.10;;;2.80;99.90;;;;;;3543516;40;20458;-78
2021/04/22 05:20:23;;;;;;;25.40;6.60;;;2.90;99.90;;;;;;3535115;40;20275;-79
2021/04/22 05:22:49;;;;;;;15.37;7.17;;;2.90;99.90;;;;;;3534626;40;20236;-79
2021/04/22 05:25:16;;;;;;;21.33;7.83;;;3.00;99.90;;;;;;3545118;40;20234;-77
2021/04/22 05:27:43;;;;;;;11.67;6.80;;;3.00;99.90;;;;;;3535120;40;20471;-79
2021/04/22 05:30:09;;;;;;;21.50;6.80;;;3.10;99.90;;;;;;3552051;40;20816;-79
2021/04/22 05:32:36;;;;;;;18.27;7.17;;;3.30;99.90;;;;;;3543922;39;20407;-78
2021/04/22 05:35:02;;;;;;;15.67;7.17;;;3.30;99.90;;;;;;3584276;39;20386;-79
2021/04/22 05:37:29;;;;;;;25.83;7.60;;;3.30;99.90;;;;;;3594280;39;20455;-79
2021/04/22 05:39:55;;;;;;;18.47;7.50;;;3.40;99.90;;;;;;3582793;39;20420;-79
2021/04/22 05:42:22;;;;;;;23.80;8.03;;;3.60;99.90;;;;;;3583765;39;20402;-79
2021/04/22 05:44:47;;;;;;;17.37;7.70;;;3.80;99.90;;;;;;3584703;39;20398;-77
2021/04/22 05:47:14;;;;;;;15.03;8.50;;;3.90;99.90;;;;;;3588899;39;20778;-78
2021/04/22 05:49:40;;;;;;;15.93;6.90;;;4.10;99.90;;;;;;3567645;39;20258;-78
2021/04/22 05:52:06;;;;;;;17.10;8.30;;;4.50;99.90;;;;;;3569331;39;20796;-77
2021/04/22 05:54:32;;;;;;;11.73;6.00;;;4.70;99.90;;;;;;3582129;39;20374;-79
2021/04/22 05:56:58;;;;;;;20.97;7.33;;;5.30;99.90;;;;;;3578448;39;21159;-79
2021/04/22 05:59:24;;;;;;;20.77;8.10;;;5.30;99.90;;;;;;3575841;39;20260;-80
2021/04/22 06:01:50;;;;;;;18.47;7.50;;;5.20;99.90;;;;;;3589014;39;20237;-78
2021/04/22 06:04:16;;;;;;;16.10;7.80;;;5.30;99.90;;;;;;3574658;39;20424;-78
2021/04/22 06:06:41;;;;;;;21.63;7.80;;;5.20;99.90;;;;;;3584418;39;20241;-78
2021/04/22 06:09:09;;;;;;;19.40;8.17;;;5.10;99.90;;;;;;3590974;39;20322;-77
2021/04/22 06:11:35;;;;;;;21.03;8.90;;;5.40;99.90;;;;;;3578209;39;20225;-78
2021/04/22 06:14:01;;;;;;;13.13;7.10;;;5.60;99.90;;;;;;3580846;39;20440;-78
2021/04/22 06:16:27;;;;;;;20.50;9.27;;;;;;;;;;3590374;39;20390;-78
2021/04/22 06:18:53;;;;;;;20.70;8.00;;;;;;;;;;3596876;39;22689;-78
2021/04/22 06:21:20;;;;;;;19.13;8.10;;;;;;;;;;3580603;39;20394;-78
2021/04/22 06:23:46;;;;;;;16.97;7.13;;;;;;;;;;3589771;39;20455;-78
2021/04/22 06:26:13;;;;;;;21.20;8.60;;;;;;;;;;3572686;39;20394;-78
2021/04/22 06:28:40;;;;;;;16.17;7.43;;;;;;;;;;3590408;39;20468;-78
2021/04/22 06:31:06;;;;;;;7.67;6.40;;;;;;;;;;3586959;39;22586;-77
2021/04/22 06:33:32;;;;;;;15.90;6.50;;;;;;;;;;3591530;39;20384;-78
2021/04/22 06:35:58;;;;;;;8.67;5.77;;;;;;;;;;3583733;39;20384;-80
2021/04/22 06:38:24;;;;;;;18.63;6.23;;;;;;;;;;3582154;39;20419;-78
2021/04/22 06:40:51;;;;;;;8.47;5.27;;;;;;;;;;3587092;39;20385;-77
2021/04/22 06:43:17;;;;;;;11.87;5.33;;;;;;;;;;3581907;39;20390;-80
2021/04/22 06:45:48;;;;;;;9.43;5.50;;;;;;;;;;3581770;39;20392;-78
2021/04/22 06:48:16;;;;;;;10.53;5.10;;;;;;;;;;3582647;39;20393;-78
2021/04/22 06:50:43;;;;;;;10.87;5.63;;;;;;;;;;3584650;39;20872;-77
2021/04/22 06:53:10;;;;;;;11.47;5.80;;;;;;;;;;3582709;39;20416;-78
2021/04/22 06:55:37;;;;;;;22.43;6.13;;;;;;;;;;3583096;39;20391;-77
2021/04/22 06:58:04;;;;;;;17.23;6.07;;;;;;;;;;3574363;39;20456;-77
2021/04/22 07:00:32;;;;;;;13.10;4.57;;;;;;;;;;3584850;39;20850;-78
2021/04/22 07:02:59;;;;;;;6.47;5.63;;;;;;;;;;3585404;39;20417;-79
2021/04/22 07:05:25;;;;;;;11.03;5.30;;;;;;;;;;3575877;39;20397;-77
2021/04/22 07:07:51;;;;;;;7.23;4.80;;;;;;;;;;3586328;39;20426;-77
2021/04/22 07:10:18;;;;;;;12.60;6.37;;;;;;;;;;3576689;39;20794;-78
2021/04/22 07:12:47;;;;;;;10.63;4.50;;;;;;;;;;3596110;39;20401;-78
2021/04/22 07:15:13;;;;;;;11.77;5.27;;;;;;;;;;3587618;39;20425;-78
2021/04/22 07:17:40;;;;;;;9.63;5.07;;;;;;;;;;3594213;39;20429;-78
2021/04/22 07:20:07;;;;;;;5.37;4.57;;;;;;;;;;3585146;39;20442;-78
2021/04/22 07:22:34;;;;;;;16.80;5.83;;;;;;;;;;3588715;39;20391;-78
2021/04/22 07:25:00;;;;;;;16.90;4.53;;;;;;;;;;3579419;39;20950;-77
2021/04/22 07:27:27;;;;;;;5.27;4.73;;;;;;;;;;3584791;39;20436;-77
2021/04/22 07:29:53;;;;;;;14.10;5.23;;;;;;;;;;3587890;39;20430;-77
2021/04/22 07:32:20;;;;;;;7.37;4.00;;;;;;;;;;3584595;39;20450;-77
2021/04/22 07:34:47;;;;;;;7.90;3.73;;;;;;;;;;3593958;39;22270;-76
2021/04/22 07:37:15;;;;;;;7.90;4.57;;;;;;;;;;3576794;39;20385;-79
2021/04/22 07:39:42;;;;;;;9.97;5.10;;;;;;;;;;3579264;39;20420;-77
2021/04/22 07:42:08;;;;;;;11.83;5.50;;;;;;;;;;3587975;39;20790;-77
2021/04/22 07:44:34;;;;;;;7.83;5.30;;;;;;;;;;3586968;39;20420;-76
2021/04/22 07:47:02;;;;;;;6.23;5.57;;;;;;;;;;3597015;39;20412;-79
2021/04/22 07:49:29;;;;;;;9.03;4.83;;;;;;;;;;3579364;39;20710;-79
2021/04/22 07:51:55;;;;;;;8.30;5.30;;;;;;;;;;3587158;39;20970;-77
2021/04/22 07:54:21;;;;;;;6.80;3.90;;;;;;;;;;3569301;39;20441;-78
2021/04/22 07:56:48;;;;;;;13.77;5.17;;;;;;;;;;3579163;39;20418;-77
2021/04/22 07:59:14;;;;;;;7.23;4.73;;;;;;;;;;3588341;39;20421;-78
2021/04/22 08:01:40;;;;;;;9.03;5.23;;;;;;;;;;3596988;39;20409;-78
2021/04/22 08:04:06;;;;;;;8.50;5.20;;;;;;;;;;3577550;39;20493;-78
2021/04/22 08:06:33;;;;;;;6.37;5.67;;;;;;;;;;3585610;39;20439;-78
2021/04/22 08:09:00;;;;;;;8.37;4.60;;;;;;;;;;3574502;39;20607;-78
2021/04/22 08:11:27;;;;;;;6.77;4.03;;;;;;;;;;3587220;39;20407;-78
2021/04/22 08:13:53;;;;;;;8.13;5.30;;;;;;;;;;3588536;39;20432;-77
2021/04/22 08:16:20;;;;;;;18.80;6.10;;;;;;;;;;3585643;39;20390;-77
2021/04/22 08:18:46;;;;;;;12.00;5.40;;;;;;;;;;3596420;39;20431;-77
2021/04/22 08:21:12;;;;;;;8.73;6.27;;;;;;;;;;3588087;39;22230;-77
2021/04/22 08:23:38;;;;;;;7.87;5.50;;;;;;;;;;3590117;39;20395;-78
2021/04/22 08:26:07;;;;;;;7.10;4.90;;;;;;;;;;3585892;39;21078;-77
2021/04/22 08:28:34;;;;;;;13.70;7.23;;;;;;;;;;3575999;39;20833;-77
2021/04/22 08:31:02;;;;;;;11.10;5.40;;;;;;;;;;3586398;39;20999;-78
2021/04/22 08:33:32;;;;;;;7.17;5.80;;;;;;;;;;3585274;39;20502;-78
2021/04/22 08:36:01;;;;;;;12.53;9.30;;;;;;;;;;3576911;39;20412;-78
2021/04/22 08:38:29;;;;;;;6.20;5.63;;;;;;;;;;3584699;39;20402;-79
2021/04/22 08:40:55;;;;;;;9.90;5.97;;;;;;;;;;3587117;39;20392;-77
2021/04/22 08:43:21;;;;;;;14.77;6.40;;;;;;;;;;3567728;39;20416;-77
2021/04/22 08:45:48;;;;;;;9.57;5.30;;;;;;;;;;3582233;39;20416;-80
2021/04/22 08:48:14;;;;;;;7.23;5.27;;;;;;;;;;3575921;39;20827;-77
2021/04/22 08:50:42;;;;;;;7.50;4.90;;;;;;;;;;3585721;39;20390;-77
2021/04/22 08:53:11;;;;;;;8.57;5.80;;;;;;;;;;3587752;39;20773;-76
2021/04/22 08:55:37;;;;;;;10.73;5.50;;;5.80;99.90;;;;;;3586456;39;20386;-77
2021/04/22 08:58:05;;;;;;;10.07;5.83;;;12.50;1.00;;;;;;3587073;39;20418;-78
2021/04/22 09:00:45;;;;;;;9.97;5.80;;;11.70;1.00;;;;;;3585316;39;20444;-77
2021/04/22 09:03:11;;;;;;;7.30;4.40;;;13.90;1.00;;;;;;3585204;39;21653;-77
2021/04/22 09:05:37;;;;;;;9.30;6.47;;;13.30;1.00;;;;;;3585122;39;20418;-77
2021/04/22 09:08:04;;;;;;;10.93;6.30;;;13.90;1.00;;;;;;3566925;39;20574;-76
2021/04/22 09:10:30;;;;;;;9.20;6.40;;;;;;;;;;3580094;39;20366;-77
2021/04/22 09:13:17;;;;;;;12.77;6.90;;;14.50;1.00;;;;;;3585333;39;20408;-77
2021/04/22 09:15:45;;;;;;;10.77;4.60;;;;;;;;;;3587756;39;20421;-78
2021/04/22 09:18:16;;;;;;;14.90;7.20;;;;;;;;;;3579740;39;20435;-79
2021/04/22 09:20:43;;;;;;;12.53;6.83;;;;;;;;;;3585612;39;20417;-76
2021/04/22 09:23:21;;;;;;;12.13;7.80;;;;;;;;;;3586627;39;23109;-77
2021/04/22 09:25:53;;;;;;;10.00;8.60;;;;;;;;;;3585827;39;20454;-77
2021/04/22 09:28:20;;;;;;;8.20;7.40;;;;;;;;;;3586566;39;21500;-77
2021/04/22 09:30:47;;;;;;;11.93;8.10;;;;;;;;;;3585428;39;20788;-77
2021/04/22 09:33:25;;;;;;;10.20;6.30;;;;;;;;;;3587451;39;21187;-78
2021/04/22 09:35:52;;;;;;;9.80;5.07;;;;;;;;;;3587361;39;21474;-77
2021/04/22 09:38:18;;;;;;;8.27;6.13;;;;;;;;;;3594295;39;20398;-77
2021/04/22 09:40:45;;;;;;;10.87;8.27;;;;;;;;;;3587966;39;20441;-76
2021/04/22 09:43:14;;;;;;;7.17;6.67;;;;;;;;;;3588294;39;20438;-78
2021/04/22 09:45:45;;;;;;;12.90;6.80;;;;;;;;;;3595091;39;20415;-78
2021/04/22 09:48:26;;;;;;;10.87;6.60;;;;;;;;;;3583913;39;20504;-78
2021/04/22 09:50:52;;;;;;;8.27;6.50;;;;;;;;;;3574932;39;20433;-79
2021/04/22 09:53:21;;;;;;;8.27;6.20;;;;;;;;;;3582681;39;20405;-78
2021/04/22 09:55:47;;;;;;;11.13;6.33;;;;;;;;;;3593765;39;20386;-76
2021/04/22 09:58:24;;;;;;;5.43;5.07;;;;;;;;;;3581872;39;20408;-78
2021/04/22 10:00:50;;;;;;;12.40;5.47;;;;;;;;;;3592615;39;20855;-79
2021/04/22 10:03:16;;;;;;;8.00;6.53;;;;;;;;;;3581544;39;22324;-76
2021/04/22 10:05:42;;;;;;;9.57;6.93;;;;;;;;;;3573150;39;20478;-79
2021/04/22 10:08:13;;;;;;;12.40;5.83;;;;;;;;;;3583158;39;21166;-79
2021/04/22 10:10:59;;;;;;;10.70;6.60;;;;;;;;;;3592503;39;20394;-79
2021/04/22 10:13:27;;;;;;;8.60;4.57;;;;;;;;;;3590653;39;20415;-79
2021/04/22 10:15:54;;;;;;;12.17;6.80;;;;;;;;;;3575121;39;20415;-79
2021/04/22 10:18:21;;;;;;;9.03;8.23;;;;;;;;;;3590755;39;20446;-78
2021/04/22 10:20:49;;;;;;;8.77;7.90;;;;;;;;;;3594104;39;20435;-79
2021/04/22 10:23:17;;;;;;;9.60;7.77;;;;;;;;;;3585565;39;20462;-78
2021/04/22 10:25:44;;;;;;;14.37;7.20;;;;;;;;;;3571560;39;20427;-77
2021/04/22 10:28:13;;;;;;;7.87;6.90;;;13.10;1.00;;;;;;3583277;39;20834;-78
2021/04/22 10:30:40;;;;;;;19.20;5.30;;;;;;;;;;3591296;39;21094;-78
2021/04/22 10:33:30;;;;;;;10.70;6.40;;;;;;;;;;3574953;39;20407;-78
2021/04/22 10:35:56;;;;;;;7.23;4.97;;;16.40;1.00;;;;;;3542748;40;20593;-80
2021/04/22 10:38:22;;;;;;;14.07;5.07;;;14.90;1.00;;;;;;3544315;40;20470;-77
2021/04/22 10:40:52;;;;;;;9.30;5.80;;;13.10;1.00;;;;;;3550882;40;20246;-77
2021/04/22 10:43:22;;;;;;;8.40;6.73;;;14.60;1.00;;;;;;3533361;40;20441;-78
2021/04/22 10:45:49;;;;;;;11.20;6.40;;;14.30;1.00;;;;;;3532522;40;20601;-78
2021/04/22 10:48:16;;;;;;;8.63;7.00;;;;;;;;;;3530199;40;20458;-77
2021/04/22 10:50:44;;;;;;;12.10;6.07;;;;;;;;;;3548513;40;20411;-78
2021/04/22 10:53:20;;;;;;;11.60;6.87;;;;;;;;;;3546919;40;20477;-77
2021/04/22 10:55:48;;;;;;;7.40;6.50;;;;;;;;;;3531520;40;20453;-77
2021/04/22 10:58:21;;;;;;;10.33;6.57;;;;;;;;;;3539924;40;20442;-77
2021/04/22 11:00:51;;;;;;;10.87;6.70;;;;;;;;;;3541201;40;20410;-77
2021/04/22 11:03:43;;;;;;;8.83;5.50;;;;;;;;;;3548412;40;20426;-77
2021/04/22 11:06:14;;;;;;;9.80;6.50;;;;;;;;;;3538013;40;20478;-78
2021/04/22 11:08:41;;;;;;;10.27;6.40;;;;;;;;;;3542708;40;20421;-78
2021/04/22 11:11:25;;;;;;;10.83;6.77;;;;;;;;;;3543890;40;20419;-78
2021/04/22 11:14:04;;;;;;;8.70;5.73;;;;;;;;;;3584378;39;20469;-79
2021/04/22 11:16:30;;;;;;;7.30;6.30;;;;;;;;;;3594003;39;20440;-77
2021/04/22 11:18:57;;;;;;;8.00;6.60;;;;;;;;;;3586903;39;20419;-77
2021/04/22 11:21:26;;;;;;;10.80;6.50;;;;;;;;;;3586816;39;21018;-78
2021/04/22 11:23:53;;;;;;;10.20;6.77;;;;;;;;;;3577912;39;20458;-78
2021/04/22 11:26:24;;;;;;;15.33;7.00;;;;;;;;;;3583928;39;20424;-79
2021/04/22 11:28:52;;;;;;;7.80;6.20;;;;;;;;;;3576935;39;20422;-76
2021/04/22 11:31:19;;;;;;;13.77;6.20;;;;;;;;;;3582543;39;21121;-78
2021/04/22 11:33:46;;;;;;;10.43;4.60;;;;;;;;;;3580949;39;20471;-79
2021/04/22 11:36:17;;;;;;;8.63;5.93;;;;;;;;;;3574409;39;20903;-78
2021/04/22 11:38:53;;;;;;;12.23;6.03;;;;;;;;;;3582657;39;20454;-78
2021/04/22 11:41:20;;;;;;;7.03;6.23;;;;;;;;;;3582011;39;20509;-78
2021/04/22 11:43:47;;;;;;;10.80;5.97;;;;;;;;;;3584087;39;21040;-76
2021/04/22 11:46:13;;;;;;;13.77;7.47;;;;;;;;;;3583680;39;20455;-78
2021/04/22 11:48:41;;;;;;;10.60;6.83;;;;;;;;;;3584411;39;20425;-77
2021/04/22 11:51:08;;;;;;;10.83;6.50;;;;;;;;;;3590014;39;20398;-77
2021/04/22 11:53:36;;;;;;;6.83;6.17;;;;;;;;;;3580550;39;20511;-77
2021/04/22 11:56:03;;;;;;;9.47;6.57;;;;;;;;;;3583652;39;20425;-78
2021/04/22 11:58:29;;;;;;;8.33;7.00;;;;;;;;;;3594642;39;20427;-76
2021/04/22 12:00:58;;;;;;;10.03;5.93;;;;;;;;;;3588087;39;20402;-77
2021/04/22 12:03:26;;;;;;;16.47;6.70;;;;;;;;;;3598086;39;23505;-77
2021/04/22 12:05:53;;;;;;;7.90;5.70;;;;;;;;;;3591781;39;22601;-77
2021/04/22 12:08:27;;;;;;;12.97;6.73;;;;;;;;;;3593859;39;20429;-78
2021/04/22 12:10:53;;;;;;;10.30;7.00;;;;;;;;;;3593960;39;20415;-77
2021/04/22 12:13:21;;;;;;;14.50;7.57;;;;;;;;;;3573994;39;20399;-77
2021/04/22 12:15:55;;;;;;;10.53;5.83;;;;;;;;;;3585420;39;20744;-79
2021/04/22 12:18:24;;;;;;;12.30;8.00;;;;;;;;;;3579550;39;20445;-77
2021/04/22 12:20:51;;;;;;;7.10;6.40;;;;;;;;;;3594106;39;20458;-77
2021/04/22 12:23:27;;;;;;;9.00;6.63;;;;;;;;;;3563335;39;20403;-77
2021/04/22 12:25:54;;;;;;;7.80;6.77;;;;;;;;;;3590429;39;20418;-78
2021/04/22 12:28:21;;;;;;;11.50;7.00;;;;;;;;;;3582583;39;20398;-77
2021/04/22 12:30:47;;;;;;;16.07;7.13;;;;;;;;;;3585639;39;20784;-77
2021/04/22 12:33:15;;;;;;;18.00;8.03;;;;;;;;;;3580046;39;20429;-77
2021/04/22 12:35:52;;;;;;;10.00;7.13;;;;;;;;;;3583500;39;20704;-78
2021/04/22 12:38:22;;;;;;;12.13;7.20;;;;;;;;;;3576511;39;20426;-77
2021/04/22 12:40:59;;;;;;;13.50;7.30;;;;;;;;;;3574901;39;20415;-77
2021/04/22 12:43:28;;;;;;;9.63;7.80;;;;;;;;;;3590540;39;23268;-77
2021/04/22 12:45:55;;;;;;;8.17;6.80;;;;;;;;;;3588745;39;20427;-77
2021/04/22 12:48:23;;;;;;;8.57;6.53;;;;;;;;;;3588210;39;20415;-78
2021/04/22 12:50:52;;;;;;;7.90;6.90;;;;;;;;;;3575397;39;22082;-79
2021/04/22 12:53:26;;;;;;;10.80;6.10;;;;;;;;;;3582510;39;20450;-79
2021/04/22 12:55:57;;;;;;;13.03;8.20;;;;;;;;;;3596108;39;20395;-78
2021/04/22 12:58:33;;;;;;;7.40;5.73;;;;;;;;;;3586435;39;20411;-78
2021/04/22 13:01:04;;;;;;;10.67;6.33;;;14.70;1.00;;;;;;3579296;39;20426;-77
2021/04/22 13:03:35;;;;;;;12.70;5.53;;;;;;;;;;3584351;39;20410;-77
2021/04/22 13:06:06;;;;;;;10.50;8.07;;;;;;;;;;3582455;39;21558;-76
2021/04/22 13:08:32;;;;;;;9.20;7.27;;;;;;;;;;3592929;39;20422;-77
2021/04/22 13:11:00;;;;;;;9.53;7.00;;;;;;;;;;3574145;39;20430;-77
2021/04/22 13:13:28;;;;;;;12.70;7.67;;;;;;;;;;3584235;39;20739;-79
2021/04/22 13:16:04;;;;;;;11.80;7.80;;;;;;;;;;3592766;39;20425;-77
2021/04/22 13:18:34;;;;;;;12.23;7.43;;;;;;;;;;3572914;39;22169;-77
2021/04/22 13:21:00;;;;;;;11.70;7.30;;;;;;;;;;3573960;39;20403;-78
2021/04/22 13:23:37;;;;;;;9.83;7.73;;;;;;;;;;3581771;39;20434;-79
2021/04/22 13:26:23;;;;;;;10.67;6.07;;;;;;;;;;3590799;39;20404;-79
2021/04/22 13:28:50;;;;;;;10.20;6.77;;;;;;;;;;3590527;39;20993;-79
2021/04/22 13:31:17;;;;;;;9.63;6.03;;;;;;;;;;3575709;39;20811;-77
2021/04/22 13:33:44;;;;;;;6.90;5.67;;;;;;;;;;3573785;39;20400;-76
2021/04/22 13:36:13;;;;;;;8.80;6.60;;;;;;;;;;3594577;39;20418;-76
2021/04/22 13:38:40;;;;;;;6.73;5.63;;;;;;;;;;3585322;39;20849;-79
2021/04/22 13:41:10;;;;;;;8.80;6.53;;;;;;;;;;3590107;39;20399;-77
2021/04/22 13:43:41;;;;;;;8.93;6.10;;;;;;;;;;3582173;39;20418;-77
2021/04/22 13:46:07;;;;;;;10.63;6.30;;;;;;;;;;3593565;39;20450;-77
2021/04/22 13:48:34;;;;;;;12.23;7.93;;;;;;;;;;3572945;39;20633;-78
2021/04/22 13:51:13;;;;;;;8.53;6.30;;;;;;;;;;3583904;39;20451;-78
2021/04/22 13:53:41;;;;;;;10.70;6.50;;;;;;;;;;3575668;39;20415;-78